createdAt,value
2019-02-15T00:00:41.277Z,55.07
2019-02-15T00:01:41.261Z,52.23
2019-02-15T00:02:41.243Z,49.86
2019-02-15T00:03:41.221Z,49.38
2019-02-15T00:04:41.204Z,50.24
2019-02-15T00:05:41.189Z,52.04
2019-02-15T00:06:41.179Z,51.95
2019-02-15T00:07:41.155Z,52.89
2019-02-15T00:08:41.144Z,53.84
2019-02-15T00:09:41.120Z,54.98
2019-02-15T00:10:41.104Z,54.22
2019-02-15T00:11:41.090Z,52.98
2019-02-15T00:12:41.074Z,52.33
2019-02-15T00:13:41.054Z,53.18
2019-02-15T00:14:41.046Z,52.51
2019-02-15T00:15:41.022Z,52.23
2019-02-15T00:16:41.015Z,51.47
2019-02-15T00:17:40.991Z,51.18
2019-02-15T00:18:40.975Z,50.71
2019-02-15T00:19:40.961Z,49.95
2019-02-15T00:20:40.947Z,48.72
2019-02-15T00:21:40.931Z,48.91
2019-02-15T00:22:40.909Z,49.38
2019-02-15T00:23:40.893Z,50.43
2019-02-15T00:24:40.874Z,49.48
2019-02-15T00:25:40.864Z,50.34
2019-02-15T00:26:40.844Z,49.19
2019-02-15T00:27:40.830Z,47.77
2019-02-15T00:28:40.810Z,46.64
2019-02-15T00:29:40.794Z,46.07
2019-02-15T00:30:40.778Z,46.07
2019-02-15T00:31:40.760Z,44.74
2019-02-15T00:32:40.747Z,44.95
2019-02-15T00:33:40.736Z,46.09
2019-02-15T00:34:40.713Z,48.18
2019-02-15T00:35:40.689Z,49.60
2019-02-15T00:36:40.685Z,50.90
2019-02-15T00:37:40.667Z,52.45
2019-02-15T00:38:40.647Z,53.46
2019-02-15T00:39:40.639Z,52.61
2019-02-15T00:40:40.614Z,53.18
2019-02-15T00:41:40.597Z,53.37
2019-02-15T00:42:40.578Z,53.46
2019-02-15T00:43:40.568Z,52.23
2019-02-15T00:44:40.555Z,51.47
2019-02-15T00:45:40.536Z,49.57
2019-02-15T00:46:40.515Z,50.62
2019-02-15T00:47:40.500Z,50.81
2019-02-15T00:48:40.546Z,50.52
2019-02-15T00:49:40.471Z,50.71
2019-02-15T00:50:40.447Z,52.04
2019-02-15T00:51:40.436Z,52.61
2019-02-15T00:52:40.418Z,52.14
2019-02-15T00:53:40.404Z,52.42
2019-02-15T00:54:40.385Z,51.09
2019-02-15T00:55:40.369Z,48.25
2019-02-15T00:56:40.356Z,48.91
2019-02-15T00:57:40.330Z,47.87
2019-02-15T00:58:40.318Z,47.30
2019-02-15T00:59:40.304Z,45.97
2019-02-15T01:00:40.290Z,45.78
2019-02-15T01:01:40.268Z,45.21
2019-02-15T01:02:40.256Z,46.64
2019-02-15T01:03:40.234Z,47.20
2019-02-15T01:04:40.253Z,46.92
2019-02-15T01:05:40.204Z,46.26
2019-02-15T01:06:40.189Z,45.12
2019-02-15T01:07:40.200Z,45.12
2019-02-15T01:08:40.153Z,44.84
2019-02-15T01:09:40.139Z,45.21
2019-02-15T01:10:40.117Z,44.84
2019-02-15T01:11:40.108Z,45.12
2019-02-15T01:12:40.088Z,45.97
2019-02-15T01:13:40.072Z,46.16
2019-02-15T01:14:40.057Z,44.84
2019-02-15T01:15:40.038Z,45.24
2019-02-15T01:16:40.021Z,46.19
2019-02-15T01:17:40.005Z,48.25
2019-02-15T01:18:39.989Z,49.95
2019-02-15T01:19:39.995Z,49.86
2019-02-15T01:20:39.974Z,50.52
2019-02-15T01:21:39.938Z,50.62
2019-02-15T01:22:39.922Z,51.18
2019-02-15T01:23:39.908Z,50.99
2019-02-15T01:24:39.891Z,51.09
2019-02-15T01:25:39.870Z,51.66
2019-02-15T01:26:39.859Z,51.18
2019-02-15T01:27:39.843Z,51.47
2019-02-15T01:28:39.826Z,52.14
2019-02-15T01:29:39.814Z,51.47
2019-02-15T01:30:39.790Z,51.76
2019-02-15T01:31:39.770Z,51.95
2019-02-15T01:32:39.756Z,52.51
2019-02-15T01:33:39.752Z,53.18
2019-02-15T01:34:39.729Z,52.33
2019-02-15T01:35:39.711Z,52.23
2019-02-15T01:36:39.693Z,52.14
2019-02-15T01:37:39.673Z,52.42
2019-02-15T01:38:39.656Z,51.37
2019-02-15T01:39:39.645Z,51.09
2019-02-15T01:40:39.618Z,52.11
2019-02-15T01:41:39.610Z,52.33
2019-02-15T01:42:39.595Z,53.65
2019-02-15T01:43:40.370Z,54.32
2019-02-15T01:44:39.565Z,54.57
2019-02-15T01:45:39.543Z,54.32
2019-02-15T01:46:39.528Z,54.88
2019-02-15T01:47:40.222Z,54.57
2019-02-15T01:48:39.493Z,54.28
2019-02-15T01:49:39.479Z,54.00
2019-02-15T01:50:39.469Z,54.47
2019-02-15T01:51:39.447Z,54.47
2019-02-15T01:52:39.425Z,54.10
2019-02-15T01:53:39.407Z,53.72
2019-02-15T01:54:39.393Z,54.10
2019-02-15T01:55:39.380Z,54.57
2019-02-15T01:56:39.365Z,54.95
2019-02-15T01:57:39.356Z,55.05
2019-02-15T01:58:39.324Z,55.62
2019-02-15T01:59:39.320Z,55.14
2019-02-15T02:00:39.293Z,54.67
2019-02-15T02:01:39.282Z,55.14
2019-02-15T02:02:39.261Z,54.86
2019-02-15T02:03:39.241Z,54.95
2019-02-15T02:04:39.227Z,55.43
2019-02-15T02:05:39.210Z,55.33
2019-02-15T02:06:39.194Z,55.52
2019-02-15T02:07:39.176Z,55.33
2019-02-15T02:08:39.165Z,54.00
2019-02-15T02:09:39.149Z,53.44
2019-02-15T02:10:39.135Z,52.20
2019-02-15T02:11:39.119Z,51.07
2019-02-15T02:12:39.103Z,51.07
2019-02-15T02:13:39.081Z,51.92
2019-02-15T02:14:39.081Z,52.96
2019-02-15T02:15:39.043Z,53.53
2019-02-15T02:16:39.037Z,53.91
2019-02-15T02:17:39.013Z,53.91
2019-02-15T02:18:38.996Z,53.91
2019-02-15T02:19:38.982Z,54.10
2019-02-15T02:20:38.962Z,53.81
2019-02-15T02:21:38.944Z,52.20
2019-02-15T02:22:38.930Z,49.84
2019-02-15T02:23:38.938Z,48.60
2019-02-15T02:24:38.902Z,48.89
2019-02-15T02:25:38.882Z,49.27
2019-02-15T02:26:38.859Z,51.16
2019-02-15T02:27:38.857Z,52.48
2019-02-15T02:28:38.829Z,52.48
2019-02-15T02:29:38.813Z,51.64
2019-02-15T02:30:38.794Z,51.26
2019-02-15T02:31:38.787Z,52.11
2019-02-15T02:32:38.765Z,53.44
2019-02-15T02:33:38.744Z,54.10
2019-02-15T02:34:38.732Z,53.34
2019-02-15T02:35:38.717Z,53.15
2019-02-15T02:36:38.806Z,52.58
2019-02-15T02:37:38.679Z,52.20
2019-02-15T02:38:38.663Z,53.34
2019-02-15T02:39:38.647Z,53.81
2019-02-15T02:40:38.629Z,53.63
2019-02-15T02:41:38.611Z,53.25
2019-02-15T02:42:38.602Z,54.10
2019-02-15T02:43:38.578Z,54.76
2019-02-15T02:44:38.563Z,54.28
2019-02-15T02:45:38.544Z,54.67
2019-02-15T02:46:38.528Z,54.57
2019-02-15T02:47:38.518Z,54.57
2019-02-15T02:48:38.505Z,54.10
2019-02-15T02:49:38.481Z,53.81
2019-02-15T02:50:38.458Z,53.44
2019-02-15T02:51:38.452Z,52.87
2019-02-15T02:52:38.430Z,53.53
2019-02-15T02:53:38.417Z,52.48
2019-02-15T02:54:38.402Z,50.97
2019-02-15T02:55:38.391Z,50.40
2019-02-15T02:56:38.364Z,50.40
2019-02-15T02:57:38.346Z,50.49
2019-02-15T02:58:38.336Z,50.95
2019-02-15T02:59:38.339Z,52.08
2019-02-15T03:00:38.301Z,52.27
2019-02-15T03:01:38.283Z,53.41
2019-02-15T03:02:38.264Z,53.97
2019-02-15T03:03:38.242Z,53.41
2019-02-15T03:04:38.225Z,52.27
2019-02-15T03:05:38.212Z,51.99
2019-02-15T03:06:38.205Z,51.89
2019-02-15T03:07:38.191Z,51.80
2019-02-15T03:08:38.237Z,51.23
2019-02-15T03:09:38.169Z,51.42
2019-02-15T03:10:38.129Z,51.42
2019-02-15T03:11:38.112Z,50.66
2019-02-15T03:12:38.097Z,50.57
2019-02-15T03:13:38.077Z,50.00
2019-02-15T03:14:38.063Z,50.28
2019-02-15T03:15:38.041Z,50.00
2019-02-15T03:16:38.022Z,50.28
2019-02-15T03:17:38.012Z,50.95
2019-02-15T03:18:37.994Z,53.22
2019-02-15T03:19:37.976Z,54.64
2019-02-15T03:20:37.955Z,54.55
2019-02-15T03:21:37.945Z,54.16
2019-02-15T03:22:37.924Z,53.31
2019-02-15T03:23:37.906Z,53.13
2019-02-15T03:24:37.884Z,53.13
2019-02-15T03:25:37.874Z,53.59
2019-02-15T03:26:37.852Z,54.16
2019-02-15T03:27:37.842Z,54.26
2019-02-15T03:28:37.818Z,54.16
2019-02-15T03:29:37.803Z,54.45
2019-02-15T03:30:37.788Z,54.26
2019-02-15T03:31:37.768Z,54.07
2019-02-15T03:32:37.754Z,54.07
2019-02-15T03:33:37.738Z,53.97
2019-02-15T03:34:37.734Z,54.74
2019-02-15T03:35:37.726Z,52.75
2019-02-15T03:36:37.684Z,51.07
2019-02-15T03:37:37.668Z,51.07
2019-02-15T03:38:37.648Z,51.16
2019-02-15T03:39:37.632Z,52.11
2019-02-15T03:40:37.618Z,52.75
2019-02-15T03:41:37.597Z,53.41
2019-02-15T03:42:37.596Z,53.91
2019-02-15T03:43:37.571Z,54.64
2019-02-15T03:44:37.588Z,54.74
2019-02-15T03:45:37.534Z,53.88
2019-02-15T03:46:37.513Z,54.55
2019-02-15T03:47:37.497Z,55.02
2019-02-15T03:48:37.481Z,55.11
2019-02-15T03:49:37.458Z,53.97
2019-02-15T03:50:37.445Z,52.56
2019-02-15T03:51:37.432Z,51.89
2019-02-15T03:52:37.414Z,51.89
2019-02-15T03:53:37.395Z,52.08
2019-02-15T03:54:37.379Z,52.08
2019-02-15T03:55:37.360Z,52.18
2019-02-15T03:56:37.346Z,52.18
2019-02-15T03:57:37.317Z,52.75
2019-02-15T03:58:37.304Z,53.31
2019-02-15T03:59:37.299Z,54.26
2019-02-15T04:00:37.278Z,54.35
2019-02-15T04:01:37.256Z,53.78
2019-02-15T04:02:37.244Z,53.59
2019-02-15T04:03:37.218Z,53.88
2019-02-15T04:04:37.205Z,54.16
2019-02-15T04:05:37.193Z,54.55
2019-02-15T04:06:37.211Z,54.93
2019-02-15T04:07:37.155Z,55.21
2019-02-15T04:08:37.138Z,54.16
2019-02-15T04:09:37.124Z,53.22
2019-02-15T04:10:37.112Z,52.37
2019-02-15T04:11:37.092Z,52.37
2019-02-15T04:12:37.092Z,53.41
2019-02-15T04:13:37.055Z,54.74
2019-02-15T04:14:37.045Z,54.64
2019-02-15T04:15:37.019Z,54.64
2019-02-15T04:16:36.996Z,53.59
2019-02-15T04:17:36.984Z,53.22
2019-02-15T04:18:36.959Z,52.56
2019-02-15T04:19:36.951Z,51.89
2019-02-15T04:20:36.929Z,52.37
2019-02-15T04:21:36.914Z,52.27
2019-02-15T04:22:36.903Z,52.08
2019-02-15T04:23:36.880Z,51.61
2019-02-15T04:24:36.865Z,51.32
2019-02-15T04:25:36.846Z,52.18
2019-02-15T04:26:36.833Z,52.56
2019-02-15T04:27:36.842Z,53.22
2019-02-15T04:28:36.798Z,53.69
2019-02-15T04:29:36.783Z,52.65
2019-02-15T04:30:36.765Z,53.13
2019-02-15T04:31:36.760Z,52.46
2019-02-15T04:32:36.720Z,52.18
2019-02-15T04:33:36.710Z,51.89
2019-02-15T04:34:36.694Z,50.57
2019-02-15T04:35:36.682Z,50.76
2019-02-15T04:36:36.654Z,51.42
2019-02-15T04:37:36.640Z,52.18
2019-02-15T04:38:36.626Z,51.80
2019-02-15T04:39:36.606Z,51.99
2019-02-15T04:40:36.590Z,52.08
2019-02-15T04:41:36.577Z,53.13
2019-02-15T04:42:36.561Z,53.97
2019-02-15T04:43:36.548Z,54.07
2019-02-15T04:44:42.585Z,53.78
2019-02-15T04:45:36.511Z,53.95
2019-02-15T04:46:36.499Z,53.78
2019-02-15T04:47:36.481Z,53.78
2019-02-15T04:48:36.452Z,55.11
2019-02-15T04:49:36.430Z,55.11
2019-02-15T04:50:36.416Z,53.88
2019-02-15T04:51:36.403Z,53.28
2019-02-15T04:52:36.393Z,53.13
2019-02-15T04:53:36.369Z,52.65
2019-02-15T04:54:36.353Z,52.75
2019-02-15T04:55:36.331Z,53.59
2019-02-15T04:56:36.316Z,53.13
2019-02-15T04:57:36.306Z,53.50
2019-02-15T04:58:36.280Z,53.97
2019-02-15T04:59:36.267Z,54.26
2019-02-15T05:00:36.244Z,54.64
2019-02-15T05:01:36.224Z,54.35
2019-02-15T05:02:36.233Z,54.93
2019-02-15T05:03:36.190Z,54.83
2019-02-15T05:04:36.179Z,54.35
2019-02-15T05:05:36.160Z,54.83
2019-02-15T05:06:36.142Z,54.74
2019-02-15T05:07:36.133Z,54.07
2019-02-15T05:08:36.106Z,53.97
2019-02-15T05:09:36.092Z,53.78
2019-02-15T05:10:36.076Z,53.97
2019-02-15T05:11:36.066Z,52.37
2019-02-15T05:12:36.036Z,52.08
2019-02-15T05:13:36.019Z,52.18
2019-02-15T05:14:36.007Z,52.08
2019-02-15T05:15:35.991Z,52.08
2019-02-15T05:16:35.968Z,52.27
2019-02-15T05:17:35.949Z,53.31
2019-02-15T05:18:35.944Z,54.45
2019-02-15T05:19:35.916Z,53.97
2019-02-15T05:20:35.909Z,55.02
2019-02-15T05:21:35.891Z,54.64
2019-02-15T05:22:35.861Z,54.07
2019-02-15T05:23:35.850Z,52.08
2019-02-15T05:24:35.828Z,51.51
2019-02-15T05:25:35.814Z,51.23
2019-02-15T05:26:35.795Z,51.04
2019-02-15T05:27:35.776Z,50.47
2019-02-15T05:28:35.758Z,50.47
2019-02-15T05:29:35.751Z,51.61
2019-02-15T05:30:35.731Z,52.18
2019-02-15T05:31:35.718Z,50.95
2019-02-15T05:32:35.690Z,51.61
2019-02-15T05:33:35.796Z,51.32
2019-02-15T05:34:35.660Z,49.33
2019-02-15T05:35:35.644Z,48.86
2019-02-15T05:36:35.625Z,49.43
2019-02-15T05:37:35.618Z,48.96
2019-02-15T05:38:35.583Z,48.96
2019-02-15T05:39:35.570Z,48.77
2019-02-15T05:40:35.548Z,49.33
2019-02-15T05:41:35.536Z,50.09
2019-02-15T05:42:35.523Z,50.47
2019-02-15T05:43:35.505Z,51.42
2019-02-15T05:44:35.479Z,52.08
2019-02-15T05:45:35.465Z,52.84
2019-02-15T05:46:35.465Z,53.78
2019-02-15T05:47:35.439Z,54.35
2019-02-15T05:48:35.420Z,55.02
2019-02-15T05:49:35.399Z,53.88
2019-02-15T05:50:35.504Z,53.88
2019-02-15T05:51:35.368Z,53.31
2019-02-15T05:52:35.346Z,52.84
2019-02-15T05:53:35.326Z,52.18
2019-02-15T05:54:35.310Z,52.18
2019-02-15T05:55:35.300Z,52.46
2019-02-15T05:56:35.278Z,52.08
2019-02-15T05:57:35.259Z,53.13
2019-02-15T05:58:35.244Z,53.31
2019-02-15T05:59:35.231Z,54.16
2019-02-15T06:00:37.255Z,54.64
2019-02-15T06:01:35.192Z,54.83
2019-02-15T06:02:35.178Z,54.93
2019-02-15T06:03:35.159Z,54.83
2019-02-15T06:04:35.136Z,55.40
2019-02-15T06:05:35.127Z,55.11
2019-02-15T06:06:35.099Z,55.02
2019-02-15T06:07:35.106Z,53.41
2019-02-15T06:08:35.074Z,53.50
2019-02-15T06:09:35.065Z,53.41
2019-02-15T06:10:35.043Z,53.31
2019-02-15T06:11:35.021Z,52.94
2019-02-15T06:12:35.002Z,52.84
2019-02-15T06:13:34.993Z,53.41
2019-02-15T06:14:34.967Z,53.78
2019-02-15T06:15:34.958Z,54.55
2019-02-15T06:16:34.943Z,54.93
2019-02-15T06:17:34.918Z,53.59
2019-02-15T06:18:34.895Z,53.97
2019-02-15T06:19:34.877Z,55.49
2019-02-15T06:20:34.870Z,57.20
2019-02-15T06:21:34.874Z,57.67
2019-02-15T06:22:34.836Z,61.74
2019-02-15T06:23:34.810Z,61.08
2019-02-15T06:24:34.796Z,60.32
2019-02-15T06:25:34.787Z,58.81
2019-02-15T06:26:34.757Z,57.95
2019-02-15T06:27:34.742Z,57.10
2019-02-15T06:28:34.726Z,56.34
2019-02-15T06:29:34.720Z,55.49
2019-02-15T06:30:34.706Z,55.21
2019-02-15T06:31:34.678Z,54.16
2019-02-15T06:32:34.654Z,53.59
2019-02-15T06:33:34.641Z,53.88
2019-02-15T06:34:34.628Z,54.74
2019-02-15T06:35:34.628Z,55.40
2019-02-15T06:36:34.586Z,56.15
2019-02-15T06:37:34.564Z,55.96
2019-02-15T06:38:35.268Z,55.87
2019-02-15T06:39:34.541Z,55.87
2019-02-15T06:40:34.519Z,55.21
2019-02-15T06:41:34.494Z,54.55
2019-02-15T06:42:34.485Z,54.45
2019-02-15T06:43:34.467Z,53.50
2019-02-15T06:44:34.445Z,52.46
2019-02-15T06:45:34.440Z,51.89
2019-02-15T06:46:34.411Z,52.37
2019-02-15T06:47:34.419Z,53.69
2019-02-15T06:48:34.409Z,53.97
2019-02-15T06:49:34.404Z,53.31
2019-02-15T06:50:34.353Z,53.22
2019-02-15T06:51:34.330Z,53.13
2019-02-15T06:52:34.309Z,53.31
2019-02-15T06:53:34.290Z,53.78
2019-02-15T06:54:34.276Z,54.07
2019-02-15T06:55:34.259Z,55.11
2019-02-15T06:56:34.243Z,55.30
2019-02-15T06:57:34.224Z,53.97
2019-02-15T06:58:34.212Z,53.22
2019-02-15T06:59:34.202Z,54.64
2019-02-15T07:00:34.178Z,55.49
2019-02-15T07:01:34.158Z,56.34
2019-02-15T07:02:34.138Z,56.44
2019-02-15T07:03:34.118Z,56.53
2019-02-15T07:04:34.105Z,56.34
2019-02-15T07:05:34.090Z,54.26
2019-02-15T07:06:34.070Z,53.13
2019-02-15T07:07:34.060Z,52.18
2019-02-15T07:08:34.031Z,52.08
2019-02-15T07:09:34.016Z,52.37
2019-02-15T07:10:34.024Z,52.46
2019-02-15T07:11:33.986Z,53.03
2019-02-15T07:12:33.970Z,52.94
2019-02-15T07:13:33.946Z,52.37
2019-02-15T07:14:33.934Z,52.56
2019-02-15T07:15:34.148Z,53.41
2019-02-15T07:16:33.898Z,53.78
2019-02-15T07:17:33.878Z,53.50
2019-02-15T07:18:33.868Z,53.78
2019-02-15T07:19:33.842Z,53.78
2019-02-15T07:20:33.829Z,53.41
2019-02-15T07:21:33.814Z,53.13
2019-02-15T07:22:33.797Z,52.56
2019-02-15T07:23:33.779Z,52.56
2019-02-15T07:24:33.762Z,53.41
2019-02-15T07:25:33.758Z,52.18
2019-02-15T07:26:33.733Z,51.89
2019-02-15T07:27:33.702Z,52.08
2019-02-15T07:28:33.697Z,52.37
2019-02-15T07:29:33.695Z,53.88
2019-02-15T07:30:33.654Z,56.15
2019-02-15T07:31:33.637Z,53.88
2019-02-15T07:32:33.621Z,51.99
2019-02-15T07:33:33.620Z,51.99
2019-02-15T07:34:33.585Z,52.08
2019-02-15T07:35:33.572Z,52.37
2019-02-15T07:36:33.555Z,52.27
2019-02-15T07:37:33.537Z,52.18
2019-02-15T07:38:33.524Z,52.27
2019-02-15T07:39:33.500Z,52.75
2019-02-15T07:40:33.483Z,52.65
2019-02-15T07:41:33.473Z,52.94
2019-02-15T07:42:33.454Z,53.88
2019-02-15T07:43:33.430Z,54.64
2019-02-15T07:44:33.409Z,54.35
2019-02-15T07:45:42.444Z,53.69
2019-02-15T07:46:33.380Z,52.29
2019-02-15T07:47:33.363Z,52.11
2019-02-15T07:48:33.347Z,52.08
2019-02-15T07:49:33.325Z,52.29
2019-02-15T07:50:33.313Z,52.87
2019-02-15T07:51:33.292Z,53.44
2019-02-15T07:52:33.282Z,54.00
2019-02-15T07:53:33.303Z,52.48
2019-02-15T07:54:33.236Z,51.92
2019-02-15T07:55:33.244Z,52.20
2019-02-15T07:56:33.206Z,52.11
2019-02-15T07:57:33.981Z,51.66
2019-02-15T07:58:33.170Z,51.37
2019-02-15T07:59:33.148Z,51.47
2019-02-15T08:00:33.139Z,51.47
2019-02-15T08:01:33.121Z,50.62
2019-02-15T08:02:33.104Z,50.43
2019-02-15T08:03:33.103Z,51.09
2019-02-15T08:04:33.067Z,51.40
2019-02-15T08:05:33.059Z,51.40
2019-02-15T08:06:33.035Z,52.26
2019-02-15T08:07:33.024Z,52.64
2019-02-15T08:08:33.000Z,52.54
2019-02-15T08:09:32.996Z,52.26
2019-02-15T08:10:32.968Z,51.33
2019-02-15T08:11:32.954Z,51.05
2019-02-15T08:12:32.942Z,49.24
2019-02-15T08:13:32.918Z,49.15
2019-02-15T08:14:32.906Z,49.24
2019-02-15T08:15:36.253Z,48.11
2019-02-15T08:16:32.873Z,47.47
2019-02-15T08:17:32.851Z,47.18
2019-02-15T08:18:32.842Z,47.18
2019-02-15T08:19:32.821Z,47.28
2019-02-15T08:20:32.813Z,47.56
2019-02-15T08:21:32.790Z,47.94
2019-02-15T08:22:32.768Z,48.22
2019-02-15T08:23:32.759Z,48.06
2019-02-15T08:24:32.738Z,48.16
2019-02-15T08:25:32.729Z,48.06
2019-02-15T08:26:32.724Z,47.97
2019-02-15T08:27:32.697Z,48.54
2019-02-15T08:28:32.687Z,46.45
2019-02-15T08:29:32.659Z,45.50
2019-02-15T08:30:32.643Z,46.09
2019-02-15T08:31:32.633Z,46.28
2019-02-15T08:32:34.581Z,46.28
2019-02-15T08:33:32.599Z,46.28
2019-02-15T08:34:32.582Z,46.00
2019-02-15T08:35:32.568Z,55.55
2019-02-15T08:36:32.546Z,63.04
2019-02-15T08:37:32.548Z,61.00
2019-02-15T08:38:32.530Z,57.50
2019-02-15T08:39:32.504Z,54.70
2019-02-15T08:40:32.491Z,47.73
2019-02-15T08:41:32.483Z,43.72
2019-02-15T08:42:32.468Z,47.66
2019-02-15T08:43:34.521Z,46.42
2019-02-15T08:44:32.429Z,40.01
2019-02-15T08:45:32.415Z,37.99
2019-02-15T08:46:32.398Z,36.18
2019-02-15T08:47:32.389Z,42.29
2019-02-15T08:48:32.378Z,43.24
2019-02-15T08:49:32.361Z,41.52
2019-02-15T08:50:32.340Z,37.61
2019-02-15T08:51:32.941Z,36.27
2019-02-15T08:52:32.319Z,36.27
2019-02-15T08:53:32.298Z,36.54
2019-02-15T08:54:32.286Z,36.73
2019-02-15T08:55:32.274Z,37.21
2019-02-15T08:56:32.263Z,38.17
2019-02-15T08:57:32.242Z,38.91
2019-02-15T08:58:32.227Z,39.58
2019-02-15T08:59:32.217Z,39.86
2019-02-15T09:00:32.201Z,39.10
2019-02-15T09:01:32.190Z,38.05
2019-02-15T09:02:32.299Z,36.90
2019-02-15T09:03:32.160Z,36.81
2019-02-15T09:04:32.149Z,36.79
2019-02-15T09:05:32.135Z,37.84
2019-02-15T09:06:32.123Z,38.22
2019-02-15T09:07:32.107Z,38.41
2019-02-15T09:08:32.101Z,38.79
2019-02-15T09:09:32.081Z,39.08
2019-02-15T09:10:32.059Z,39.27
2019-02-15T09:11:32.055Z,39.08
2019-02-15T09:12:32.038Z,39.08
2019-02-15T09:13:32.028Z,38.53
2019-02-15T09:14:32.014Z,37.76
2019-02-15T09:15:32.008Z,37.48
2019-02-15T09:16:31.990Z,37.66
2019-02-15T09:17:31.980Z,36.79
2019-02-15T09:18:31.963Z,37.48
2019-02-15T09:19:31.948Z,38.91
2019-02-15T09:20:31.934Z,38.43
2019-02-15T09:21:31.921Z,36.60
2019-02-15T09:22:31.908Z,36.60
2019-02-15T09:23:31.893Z,36.69
2019-02-15T09:24:31.901Z,36.87
2019-02-15T09:25:31.867Z,37.34
2019-02-15T09:26:31.859Z,37.65
2019-02-15T09:27:31.841Z,37.93
2019-02-15T09:28:31.830Z,38.32
2019-02-15T09:29:31.816Z,38.22
2019-02-15T09:30:31.805Z,38.60
2019-02-15T09:31:31.788Z,40.12
2019-02-15T09:32:31.775Z,41.48
2019-02-15T09:33:31.774Z,41.86
2019-02-15T09:34:33.120Z,40.72
2019-02-15T09:35:31.741Z,39.00
2019-02-15T09:36:31.742Z,37.12
2019-02-15T09:37:31.716Z,36.64
2019-02-15T09:38:31.703Z,36.16
2019-02-15T09:39:31.692Z,35.59
2019-02-15T09:40:31.674Z,35.70
2019-02-15T09:41:31.670Z,36.56
2019-02-15T09:42:31.655Z,37.32
2019-02-15T09:43:31.648Z,37.71
2019-02-15T09:44:31.628Z,38.18
2019-02-15T09:45:32.921Z,38.37
2019-02-15T09:46:31.601Z,38.87
2019-02-15T09:47:31.593Z,38.96
2019-02-15T09:48:31.583Z,39.06
2019-02-15T09:49:31.557Z,38.70
2019-02-15T09:50:31.571Z,39.84
2019-02-15T09:51:31.541Z,39.94
2019-02-15T09:52:31.526Z,39.18
2019-02-15T09:53:31.515Z,38.89
2019-02-15T09:54:31.549Z,38.43
2019-02-15T09:55:31.497Z,37.95
2019-02-15T09:56:31.484Z,37.85
2019-02-15T09:57:31.470Z,37.48
2019-02-15T09:58:31.467Z,36.90
2019-02-15T09:59:31.452Z,36.82
2019-02-15T10:00:31.429Z,36.35
2019-02-15T10:01:31.421Z,35.86
2019-02-15T10:02:31.414Z,35.86
2019-02-15T10:03:31.403Z,35.58
2019-02-15T10:04:31.405Z,35.02
2019-02-15T10:05:31.374Z,34.74
2019-02-15T10:06:31.362Z,33.87
2019-02-15T10:07:31.356Z,33.30
2019-02-15T10:08:31.345Z,33.01
2019-02-15T10:09:31.333Z,32.63
2019-02-15T10:10:31.325Z,32.44
2019-02-15T10:11:31.311Z,33.40
2019-02-15T10:12:31.295Z,33.32
2019-02-15T10:13:31.287Z,33.80
2019-02-15T10:14:31.283Z,33.12
2019-02-15T10:15:31.271Z,33.22
2019-02-15T10:16:31.570Z,33.32
2019-02-15T10:17:31.246Z,33.41
2019-02-15T10:18:31.240Z,33.24
2019-02-15T10:19:31.228Z,33.14
2019-02-15T10:20:31.209Z,32.67
2019-02-15T10:21:31.207Z,32.76
2019-02-15T10:22:31.191Z,32.76
2019-02-15T10:23:31.185Z,32.86
2019-02-15T10:24:31.175Z,32.47
2019-02-15T10:25:31.163Z,31.90
2019-02-15T10:26:31.156Z,31.61
2019-02-15T10:27:31.141Z,31.53
2019-02-15T10:28:31.127Z,31.82
2019-02-15T10:29:31.123Z,32.10
2019-02-15T10:30:31.116Z,32.01
2019-02-15T10:31:31.110Z,31.43
2019-02-15T10:32:31.100Z,30.96
2019-02-15T10:33:31.086Z,31.24
2019-02-15T10:34:31.080Z,30.49
2019-02-15T10:35:31.062Z,30.78
2019-02-15T10:36:31.067Z,30.20
2019-02-15T10:37:31.047Z,30.20
2019-02-15T10:38:31.044Z,30.78
2019-02-15T10:39:31.026Z,30.78
2019-02-15T10:40:31.019Z,29.05
2019-02-15T10:41:31.009Z,27.33
2019-02-15T10:42:30.999Z,27.33
2019-02-15T10:43:30.986Z,29.53
2019-02-15T10:44:30.980Z,30.11
2019-02-15T10:45:30.969Z,30.79
2019-02-15T10:46:37.702Z,30.70
2019-02-15T10:47:30.944Z,31.37
2019-02-15T10:48:30.938Z,30.99
2019-02-15T10:49:30.932Z,30.51
2019-02-15T10:50:30.926Z,30.14
2019-02-15T10:51:30.928Z,29.75
2019-02-15T10:52:30.906Z,29.37
2019-02-15T10:53:30.901Z,28.39
2019-02-15T10:54:30.888Z,28.59
2019-02-15T10:55:30.878Z,28.30
2019-02-15T10:56:30.871Z,27.44
2019-02-15T10:57:30.861Z,27.33
2019-02-15T10:58:30.849Z,28.19
2019-02-15T10:59:30.845Z,28.57
2019-02-15T11:00:30.827Z,29.05
2019-02-15T11:01:30.835Z,29.44
2019-02-15T11:02:30.819Z,29.53
2019-02-15T11:03:30.813Z,29.05
2019-02-15T11:04:30.802Z,29.63
2019-02-15T11:05:30.790Z,30.40
2019-02-15T11:06:30.778Z,31.07
2019-02-15T11:07:30.768Z,30.87
2019-02-15T11:08:30.766Z,31.27
2019-02-15T11:09:30.747Z,31.66
2019-02-15T11:10:31.956Z,31.56
2019-02-15T11:11:30.744Z,31.48
2019-02-15T11:12:30.726Z,31.29
2019-02-15T11:13:30.719Z,31.02
2019-02-15T11:14:30.709Z,31.02
2019-02-15T11:15:30.697Z,30.65
2019-02-15T11:16:30.689Z,29.40
2019-02-15T11:17:30.683Z,29.49
2019-02-15T11:18:30.677Z,28.45
2019-02-15T11:19:30.662Z,27.09
2019-02-15T11:20:30.657Z,26.23
2019-02-15T11:21:30.646Z,26.04
2019-02-15T11:22:30.638Z,26.04
2019-02-15T11:23:30.629Z,25.94
2019-02-15T11:24:30.627Z,25.83
2019-02-15T11:25:30.614Z,26.12
2019-02-15T11:26:30.602Z,26.89
2019-02-15T11:27:30.600Z,28.61
2019-02-15T11:28:30.597Z,29.11
2019-02-15T11:29:30.586Z,29.49
2019-02-15T11:30:30.573Z,29.30
2019-02-15T11:31:30.565Z,29.13
2019-02-15T11:32:30.563Z,29.03
2019-02-15T11:33:30.552Z,28.37
2019-02-15T11:34:30.547Z,27.89
2019-02-15T11:35:30.548Z,28.19
2019-02-15T11:36:30.537Z,27.91
2019-02-15T11:37:30.521Z,27.61
2019-02-15T11:38:30.514Z,27.53
2019-02-15T11:39:30.509Z,26.18
2019-02-15T11:40:30.511Z,26.09
2019-02-15T11:41:30.488Z,25.71
2019-02-15T11:42:30.480Z,25.91
2019-02-15T11:43:30.471Z,25.62
2019-02-15T11:44:30.472Z,25.23
2019-02-15T11:45:30.459Z,25.34
2019-02-15T11:46:30.451Z,25.05
2019-02-15T11:47:30.442Z,25.54
2019-02-15T11:48:30.435Z,25.05
2019-02-15T11:49:30.431Z,24.96
2019-02-15T11:50:30.431Z,25.15
2019-02-15T11:51:30.412Z,24.67
2019-02-15T11:52:30.404Z,24.39
2019-02-15T11:53:30.403Z,24.01
2019-02-15T11:54:30.387Z,24.20
2019-02-15T11:55:30.386Z,24.10
2019-02-15T11:56:30.375Z,23.81
2019-02-15T11:57:30.373Z,23.44
2019-02-15T11:58:30.365Z,23.04
2019-02-15T11:59:30.359Z,23.05
2019-02-15T12:00:30.358Z,23.34
2019-02-15T12:01:30.340Z,24.98
2019-02-15T12:02:30.334Z,25.09
2019-02-15T12:03:30.338Z,25.57
2019-02-15T12:04:30.327Z,24.90
2019-02-15T12:05:30.317Z,24.22
2019-02-15T12:06:30.319Z,24.33
2019-02-15T12:07:30.303Z,24.04
2019-02-15T12:08:30.295Z,23.36
2019-02-15T12:09:30.289Z,22.78
2019-02-15T12:10:30.288Z,22.50
2019-02-15T12:11:30.279Z,22.60
2019-02-15T12:12:30.276Z,22.80
2019-02-15T12:13:30.271Z,22.41
2019-02-15T12:14:30.262Z,22.31
2019-02-15T12:15:30.259Z,21.73
2019-02-15T12:16:30.253Z,21.64
2019-02-15T12:17:30.240Z,22.22
2019-02-15T12:18:30.234Z,22.31
2019-02-15T12:19:30.236Z,22.22
2019-02-15T12:20:30.226Z,21.92
2019-02-15T12:21:30.218Z,22.41
2019-02-15T12:22:30.216Z,22.60
2019-02-15T12:23:30.206Z,22.50
2019-02-15T12:24:30.197Z,22.41
2019-02-15T12:25:30.197Z,22.41
2019-02-15T12:26:30.185Z,22.71
2019-02-15T12:27:30.181Z,21.92
2019-02-15T12:28:30.683Z,22.03
2019-02-15T12:29:30.174Z,22.13
2019-02-15T12:30:30.166Z,22.42
2019-02-15T12:31:30.161Z,22.71
2019-02-15T12:32:30.159Z,22.42
2019-02-15T12:33:30.146Z,22.91
2019-02-15T12:34:30.148Z,23.10
2019-02-15T12:35:30.138Z,22.81
2019-02-15T12:36:30.139Z,22.42
2019-02-15T12:37:30.122Z,22.13
2019-02-15T12:38:30.124Z,18.44
2019-02-15T12:39:30.122Z,19.89
2019-02-15T12:40:30.101Z,21.62
2019-02-15T12:41:30.101Z,18.54
2019-02-15T12:42:30.095Z,18.44
2019-02-15T12:43:30.092Z,17.57
2019-02-15T12:44:30.086Z,18.15
2019-02-15T12:45:30.078Z,18.82
2019-02-15T12:46:30.079Z,19.12
2019-02-15T12:47:30.069Z,18.53
2019-02-15T12:48:30.065Z,20.46
2019-02-15T12:49:30.057Z,21.91
2019-02-15T12:50:30.053Z,18.72
2019-02-15T12:51:30.051Z,19.20
2019-02-15T12:52:30.041Z,18.72